ADDS METAR Data INFO
IDs: Format: Raw Decoded Include TAF

Data at: 0312 UTC 20 Jul 2018

KTDZ 200253Z AUTO 10006KT 10SM CLR 21/18 A2997 RMK AO2 SLP144 T02110178 58002
KTDZ 200153Z AUTO 10006KT 10SM CLR 22/18 A2998 RMK AO2 SLP147 T02220178
KTDZ 200053Z AUTO 08008KT 10SM CLR 24/17 A2997 RMK AO2 SLP145 T02390172
KTDZ 192353Z AUTO 09008KT 10SM CLR 26/16 A2998 RMK AO2 SLP148 T02560161 10294 20239 56011
KTDZ 192253Z AUTO 09011KT 10SM CLR 27/16 A2998 RMK AO2 SLP148 T02670156
KTDZ 192153Z AUTO 07009KT 10SM CLR 28/14 A3000 RMK AO2 SLP155 T02830139
KTDZ 192053Z AUTO 10004KT 10SM CLR 29/11 A3001 RMK AO2 SLP158 T02890111 56013
KTDZ 191953Z AUTO 12009KT 070V150 10SM CLR 29/12 A3003 RMK AO2 SLP164 T02890122
KTDZ 191853Z AUTO 07008KT 10SM CLR 28/11 A3003 RMK AO2 SLP165 T02780111
KTDZ 191753Z AUTO 12008G15KT 10SM CLR 28/12 A3005 RMK AO2 SLP172 T02780122 10283 20189 58015
KTDZ 191653Z AUTO 12009G15KT 10SM FEW055 28/13 A3007 RMK AO2 SLP178 T02780128
KTDZ 191553Z AUTO 13009KT 10SM CLR 26/13 A3009 RMK AO2 SLP184 T02610128
KTDZ 191453Z AUTO 13011KT 10SM CLR 26/13 A3010 RMK AO2 SLP187 T02560128 50001
KTDZ 191353Z AUTO 14008KT 10SM CLR 24/12 A3010 RMK AO2 SLP189 T02390122
KTDZ 191253Z AUTO 17007KT 10SM CLR 21/13 A3010 RMK AO2 SLP189 T02110128
KTDZ 191153Z AUTO 15005KT 10SM CLR 19/13 A3009 RMK AO2 SLP187 T01890128 10189 20156 51005
KTDZ 191053Z AUTO 14003KT 10SM CLR 17/12 A3009 RMK AO2 SLP186 T01670122 $
KTDZ 190953Z AUTO 14005KT 10SM CLR 16/12 A3008 RMK AO2 SLP184 T01610117 $
KTDZ 190853Z AUTO 13004KT 10SM CLR 17/12 A3008 RMK AO2 SLP182 T01670122 53004 $
KTDZ 190753Z AUTO 09003KT 10SM CLR 17/12 A3007 RMK AO2 SLP180 T01720117 $
KTDZ 190653Z AUTO 11004KT 10SM CLR 17/12 A3007 RMK AO2 SLP178 T01720117 $
KTDZ 190553Z AUTO 14006KT 10SM CLR 18/12 A3007 RMK AO2 SLP178 T01780117 10250 20156 50001 $
KTDZ 190453Z AUTO 10003KT 10SM CLR 18/12 A3007 RMK AO2 SLP179 T01830122 402670178 $
KTDZ 190353Z AUTO 14005KT 10SM CLR 19/12 A3007 RMK AO2 SLP178 T01940122 $
KTDZ 190253Z AUTO 10SM CLR 21/12 A3006 RMK AO2 SLP177 T02060122 53005 $
KTDZ 190153Z AUTO 12006KT 10SM CLR 22/12 A3006 RMK AO2 SLP174 T02170122
KTDZ 190053Z AUTO 12007KT 10SM CLR 23/12 A3005 RMK AO2 SLP172 T02280122
KTDZ 182353Z AUTO 10007KT 10SM CLR 25/13 A3005 RMK AO2 SLP170 T02500128 10267 20250 56006
KTDZ 182253Z AUTO 08006KT 10SM CLR 26/13 A3005 RMK AO2 SLP172 T02610128
KTDZ 182153Z AUTO VRB04KT 10SM SCT055 25/13 A3006 RMK AO2 SLP175 T02500128
KTDZ 182053Z AUTO 07006KT 10SM FEW055 26/13 A3007 RMK AO2 SLP177 T02610133 58011
KTDZ 181953Z AUTO 06009G15KT 10SM FEW050 26/13 A3008 RMK AO2 SLP182 T02610133
KTDZ 181853Z AUTO 07008KT 040V100 10SM FEW055 27/14 A3009 RMK AO2 SLP186 T02670139
KTDZ 181753Z AUTO VRB06KT 10SM CLR 26/13 A3010 RMK AO2 SLP189 T02560133 10261 20194 58006
KTDZ 181653Z AUTO VRB06KT 10SM BKN045 BKN055 25/14 A3012 RMK AO2 SLP193 T02500144
KTDZ 181553Z AUTO 06007KT 10SM FEW038 24/14 A3012 RMK AO2 SLP195 T02390144